FABL/BFN METAR and TAF weather

Enter ICAO airport designator
Station Type Date Time Source
FABL METAR 2019/06/24 23:27 UTC NOAA

FABL 242327Z AUTO 27001KT 9000 ///////// M01/M04 Q1023


Station Type Date Time Source
FABL Decoded METAR 2019/06/24 23:27 UTC NOAA

Bloemfontein, Bloemfontein Airport, South Africa (FABL) 29-06S 026-18E 1400M
Jun 24, 2019 - 07:27 PM EDT / 2019.06.24 2327 UTC
Wind: from the W (270 degrees) at 1 MPH (1 KT):0
Visibility: 5 mile(s):0
Temperature: 30 F (-1 C)
Dew Point: 24 F (-4 C)
Relative Humidity: 80%
Pressure (altimeter): 30.21 in. Hg (1023 hPa)
ob: FABL 242327Z AUTO 27001KT 9000 ///////// M01/M04 Q1023
cycle: 23

Station Type Date Time Source
FABL TAF 2019/06/24 18:01 UTC NOAA

TAF FABL 241600Z 2418/2518 VRB03KT CAVOK TX18/2512Z TNM02/2504Z

Example: see airport list